Time;durP1;ratioP1;P1;durP2;ratioP2;P2;SDS_P1;SDS_P2;PMS_P1;PMS_P2;Temp;Humidity;BMP_temperature;BMP_pressure;BME280_temperature;BME280_humidity;BME280_pressure;Samples;Min_cycle;Max_cycle;Signal;HPM_P1;HPM_P2
2023/07/14 00:01:39;;;;;;;3.50;1.70;;;24.70;92.10;;;;;;5017435;28;20459;-53
2023/07/14 00:04:11;;;;;;;2.27;2.07;;;24.70;92.10;;;;;;5020875;28;20462;-52
2023/07/14 00:06:38;;;;;;;2.20;2.00;;;24.70;92.10;;;;;;5018546;28;20853;-52
2023/07/14 00:09:14;;;;;;;2.43;2.10;;;24.80;92.10;;;;;;5007077;28;20481;-50
2023/07/14 00:11:41;;;;;;;2.53;2.33;;;24.70;92.00;;;;;;5004822;28;20482;-50
2023/07/14 00:14:08;;;;;;;1.90;1.60;;;24.80;92.50;;;;;;5004116;28;20463;-55
2023/07/14 00:16:35;;;;;;;2.93;2.30;;;24.80;92.20;;;;;;5006343;28;20475;-50
2023/07/14 00:19:09;;;;;;;2.33;2.13;;;24.80;92.10;;;;;;5004071;28;20467;-53
2023/07/14 00:21:37;;;;;;;1.80;1.70;;;24.70;92.10;;;;;;5007924;28;20474;-53
2023/07/14 00:24:10;;;;;;;2.57;2.37;;;24.70;92.00;;;;;;5003850;28;20471;-49
2023/07/14 00:26:37;;;;;;;1.80;1.70;;;24.70;92.10;;;;;;5006285;28;20455;-50
2023/07/14 00:29:10;;;;;;;2.03;1.90;;;24.60;92.00;;;;;;5001808;28;20708;-50
2023/07/14 00:31:37;;;;;;;1.93;1.83;;;24.80;92.10;;;;;;4986988;28;20839;-58
2023/07/14 00:34:10;;;;;;;3.17;2.13;;;24.60;91.90;;;;;;5003375;28;20688;-54
2023/07/14 00:36:36;;;;;;;1.80;1.57;;;24.70;92.00;;;;;;5003860;28;21102;-52
2023/07/14 00:39:03;;;;;;;2.30;1.63;;;24.70;92.00;;;;;;5003315;28;20471;-51
2023/07/14 00:41:30;;;;;;;2.27;2.07;;;24.60;91.90;;;;;;5004622;28;20551;-53
2023/07/14 00:43:57;;;;;;;1.93;1.73;;;24.80;92.00;;;;;;4998914;28;20471;-50
2023/07/14 00:46:28;;;;;;;2.13;2.03;;;24.70;91.90;;;;;;5002597;28;20460;-50
2023/07/14 00:48:58;;;;;;;2.03;1.83;;;24.70;92.00;;;;;;5003552;28;20458;-52
2023/07/14 00:51:29;;;;;;;1.80;1.70;;;24.60;91.90;;;;;;5003653;28;20486;-49
2023/07/14 00:53:56;;;;;;;2.50;2.30;;;24.70;92.00;;;;;;5000162;28;20708;-51
2023/07/14 00:56:34;;;;;;;1.80;1.70;;;24.70;91.90;;;;;;5003816;28;20448;-56
2023/07/14 00:59:03;;;;;;;1.97;1.80;;;24.70;91.90;;;;;;4999949;28;20466;-57
2023/07/14 01:01:32;;;;;;;1.73;1.63;;;24.70;92.00;;;;;;5002096;28;20463;-57
2023/07/14 01:04:00;;;;;;;2.50;2.30;;;24.70;92.00;;;;;;5000785;28;20460;-54
2023/07/14 01:06:31;;;;;;;2.23;2.03;;;24.60;91.90;;;;;;5001559;28;20470;-52
2023/07/14 01:09:01;;;;;;;2.20;2.00;;;24.80;92.00;;;;;;5000358;28;20951;-56
2023/07/14 01:11:34;;;;;;;2.67;2.47;;;24.70;92.00;;;;;;5003591;28;20483;-56
2023/07/14 01:14:04;;;;;;;1.73;1.63;;;24.60;91.90;;;;;;5001081;28;20459;-52
2023/07/14 01:16:35;;;;;;;1.73;1.57;;;24.70;91.90;;;;;;5001183;28;20460;-51
2023/07/14 01:19:04;;;;;;;2.50;1.83;;;24.60;91.90;;;;;;5002737;28;20467;-57
2023/07/14 01:21:33;;;;;;;3.60;1.63;;;24.70;92.00;;;;;;5000796;28;20475;-58
2023/07/14 01:24:06;;;;;;;1.87;1.50;;;24.60;91.90;;;;;;5002300;28;20467;-57
2023/07/14 01:26:55;;;;;;;2.43;1.80;;;24.70;91.90;;;;;;5003098;28;20471;-55
2023/07/14 01:29:22;;;;;;;2.03;1.93;;;24.60;91.80;;;;;;4998184;28;20495;-55
2023/07/14 01:31:49;;;;;;;1.43;1.33;;;24.60;91.80;;;;;;5002966;28;20487;-55
2023/07/14 01:34:17;;;;;;;2.30;2.10;;;24.60;91.90;;;;;;5004011;28;20554;-57
2023/07/14 01:36:45;;;;;;;1.70;1.57;;;24.60;91.90;;;;;;5001890;28;20484;-57
2023/07/14 01:39:12;;;;;;;2.17;1.97;;;24.70;91.90;;;;;;5000286;28;20986;-55
2023/07/14 01:41:39;;;;;;;1.80;1.70;;;24.60;91.90;;;;;;5003726;28;20499;-57
2023/07/14 01:44:08;;;;;;;1.73;1.63;;;24.70;91.90;;;;;;5000705;28;20455;-54
2023/07/14 01:46:35;;;;;;;1.80;1.70;;;24.60;91.80;;;;;;5003396;28;20459;-55
2023/07/14 01:49:12;;;;;;;2.53;1.90;;;24.60;91.90;;;;;;5003214;28;20455;-52
2023/07/14 01:51:43;;;;;;;1.97;1.77;;;24.60;91.80;;;;;;5002241;28;20525;-59
2023/07/14 01:54:19;;;;;;;1.83;1.60;;;24.60;91.80;;;;;;5010981;28;20495;-52
2023/07/14 01:56:48;;;;;;;1.53;1.40;;;24.60;91.80;;;;;;5007599;28;20462;-55
2023/07/14 01:59:20;;;;;;;2.37;2.17;;;24.60;91.80;;;;;;5004867;28;20496;-53
2023/07/14 02:01:48;;;;;;;1.80;1.60;;;24.60;91.80;;;;;;5005785;28;20475;-57
2023/07/14 02:04:19;;;;;;;1.90;1.70;;;24.60;91.80;;;;;;5003460;28;20463;-55
2023/07/14 02:06:46;;;;;;;2.23;2.03;;;24.60;91.80;;;;;;5009996;28;20590;-60
2023/07/14 02:09:17;;;;;;;2.57;1.80;;;24.60;91.80;;;;;;5014785;28;20943;-56
2023/07/14 02:11:45;;;;;;;1.87;1.70;;;24.70;91.90;;;;;;5012513;28;20569;-53
2023/07/14 02:14:17;;;;;;;1.53;1.43;;;24.70;91.80;;;;;;5002946;28;20852;-50
2023/07/14 02:16:46;;;;;;;1.77;1.67;;;24.60;91.90;;;;;;5009615;28;20474;-51
2023/07/14 02:19:17;;;;;;;1.77;1.67;;;24.60;91.90;;;;;;5011042;28;20488;-60
2023/07/14 02:21:46;;;;;;;1.90;1.80;;;24.50;91.80;;;;;;5008341;28;20470;-52
2023/07/14 02:24:18;;;;;;;2.17;1.67;;;24.60;91.80;;;;;;5007646;28;20475;-59
2023/07/14 02:26:47;;;;;;;1.90;1.70;;;24.70;91.90;;;;;;5011393;28;21810;-53
2023/07/14 02:29:14;;;;;;;1.77;1.67;;;24.60;91.90;;;;;;5005265;28;20554;-52
2023/07/14 02:31:47;;;;;;;2.10;1.93;;;24.60;91.80;;;;;;5009050;28;21049;-56
2023/07/14 02:34:16;;;;;;;2.30;1.90;;;24.50;91.80;;;;;;5016961;28;20475;-59
2023/07/14 02:36:55;;;;;;;2.30;1.80;;;24.60;91.80;;;;;;5016486;28;20484;-50
2023/07/14 02:39:22;;;;;;;1.60;1.50;;;24.60;91.80;;;;;;5007467;28;20463;-52
2023/07/14 02:41:51;;;;;;;2.37;2.00;;;24.60;91.80;;;;;;5008034;28;20470;-51
2023/07/14 02:44:19;;;;;;;3.03;2.40;;;24.60;91.80;;;;;;5003700;28;20460;-52
2023/07/14 02:46:51;;;;;;;2.50;2.30;;;24.60;91.80;;;;;;5004267;28;20618;-50
2023/07/14 02:49:18;;;;;;;2.27;1.90;;;24.60;91.80;;;;;;5009327;28;20478;-51
2023/07/14 02:51:45;;;;;;;2.40;1.60;;;24.60;91.90;;;;;;5006131;28;20478;-54
2023/07/14 02:54:12;;;;;;;2.00;1.90;;;24.50;91.70;;;;;;5006789;28;20555;-56
2023/07/14 02:56:38;;;;;;;1.60;1.50;;;24.60;91.80;;;;;;5001946;28;20813;-58
2023/07/14 02:59:06;;;;;;;1.70;1.60;;;24.60;91.80;;;;;;5005016;28;20471;-51
2023/07/14 03:01:33;;;;;;;2.00;1.80;;;24.60;91.80;;;;;;5003808;28;20474;-56
2023/07/14 03:04:01;;;;;;;1.60;1.50;;;24.60;91.80;;;;;;5010680;28;20972;-57
2023/07/14 03:06:29;;;;;;;1.97;1.77;;;24.60;91.80;;;;;;5006582;28;20471;-50
2023/07/14 03:08:55;;;;;;;1.70;1.53;;;24.50;91.80;;;;;;5004357;28;20978;-53
2023/07/14 03:11:22;;;;;;;1.90;1.80;;;24.50;91.70;;;;;;5006034;28;20467;-51
2023/07/14 03:13:49;;;;;;;2.03;1.40;;;24.50;91.70;;;;;;5003994;28;20468;-56
2023/07/14 03:16:16;;;;;;;1.93;1.40;;;24.50;91.70;;;;;;5001338;28;21058;-56
2023/07/14 03:18:43;;;;;;;1.70;1.60;;;24.60;91.80;;;;;;5002920;28;20546;-55
2023/07/14 03:21:11;;;;;;;2.17;1.97;;;24.60;91.80;;;;;;5002933;28;20546;-56
2023/07/14 03:23:38;;;;;;;1.63;1.53;;;24.60;91.80;;;;;;5007504;28;20484;-55
2023/07/14 03:26:06;;;;;;;1.70;1.60;;;24.60;91.80;;;;;;5002059;28;20467;-56
2023/07/14 03:28:34;;;;;;;2.50;1.97;;;24.50;91.80;;;;;;5009675;28;20463;-50
2023/07/14 03:31:02;;;;;;;1.80;1.63;;;24.60;91.90;;;;;;5004097;28;20464;-55
2023/07/14 03:33:29;;;;;;;1.87;1.77;;;24.50;91.80;;;;;;5007542;28;21033;-56
2023/07/14 03:35:56;;;;;;;1.70;1.60;;;24.50;91.80;;;;;;5004680;28;21091;-52
2023/07/14 03:38:24;;;;;;;1.50;1.23;;;24.50;91.80;;;;;;5003237;28;20530;-56
2023/07/14 03:40:51;;;;;;;1.87;1.70;;;24.60;91.90;;;;;;5006527;28;20556;-49
2023/07/14 03:43:17;;;;;;;2.40;1.90;;;24.50;91.80;;;;;;5004289;28;20475;-57
2023/07/14 03:45:44;;;;;;;1.80;1.70;;;24.60;91.90;;;;;;5003311;28;20846;-55
2023/07/14 03:48:11;;;;;;;1.87;1.77;;;24.50;91.80;;;;;;5004697;28;20456;-54
2023/07/14 03:50:38;;;;;;;2.53;1.70;;;24.50;91.80;;;;;;5003327;28;20470;-55
2023/07/14 03:53:06;;;;;;;1.60;1.50;;;24.60;91.80;;;;;;5004326;28;21202;-56
2023/07/14 03:55:34;;;;;;;2.33;1.80;;;24.50;91.80;;;;;;5002868;28;20447;-53
2023/07/14 03:58:00;;;;;;;1.93;1.57;;;24.50;91.80;;;;;;5001616;28;20474;-52
2023/07/14 04:00:27;;;;;;;1.70;1.60;;;24.60;91.90;;;;;;5001173;28;20539;-57
2023/07/14 04:02:54;;;;;;;1.93;1.83;;;24.50;91.80;;;;;;5003378;28;20468;-55
2023/07/14 04:05:21;;;;;;;2.20;2.00;;;24.50;91.80;;;;;;5011200;28;20863;-55
2023/07/14 04:07:48;;;;;;;1.80;1.60;;;24.50;91.80;;;;;;5004825;28;20478;-59
2023/07/14 04:10:15;;;;;;;1.77;1.67;;;24.50;91.80;;;;;;5009754;28;21013;-54
2023/07/14 04:12:43;;;;;;;1.53;1.43;;;24.50;91.80;;;;;;5013774;28;20486;-51
2023/07/14 04:15:10;;;;;;;1.60;1.50;;;24.50;91.80;;;;;;5009474;28;20882;-57
2023/07/14 04:17:37;;;;;;;1.70;1.60;;;24.50;91.80;;;;;;5010528;28;21068;-52
2023/07/14 04:20:05;;;;;;;1.70;1.60;;;24.60;91.90;;;;;;5009845;28;20454;-51
2023/07/14 04:22:32;;;;;;;2.03;1.93;;;24.50;91.80;;;;;;5012897;28;20472;-54
2023/07/14 04:24:59;;;;;;;2.20;2.00;;;24.50;91.90;;;;;;5013267;28;20463;-55
2023/07/14 04:27:26;;;;;;;1.90;1.70;;;24.50;91.90;;;;;;5013328;28;20455;-58
2023/07/14 04:29:54;;;;;;;2.07;1.80;;;24.50;91.90;;;;;;5005278;28;20464;-58
2023/07/14 04:32:21;;;;;;;1.70;1.60;;;24.40;91.80;;;;;;5007937;28;21111;-55
2023/07/14 04:34:49;;;;;;;1.50;1.40;;;24.50;91.90;;;;;;5009202;28;20983;-55
2023/07/14 04:37:16;;;;;;;1.83;1.70;;;24.50;91.90;;;;;;5005271;28;20467;-55
2023/07/14 04:39:44;;;;;;;1.47;1.37;;;24.50;91.90;;;;;;5007572;28;20827;-56
2023/07/14 04:42:11;;;;;;;1.83;1.73;;;24.40;91.80;;;;;;5012515;28;20463;-51
2023/07/14 04:44:38;;;;;;;2.17;1.97;;;24.40;91.80;;;;;;5013594;28;20462;-54
2023/07/14 04:47:08;;;;;;;1.20;1.00;;;24.50;91.90;;;;;;5007833;28;20471;-53
2023/07/14 04:49:35;;;;;;;1.80;1.70;;;24.50;91.80;;;;;;5012460;28;20475;-53
2023/07/14 04:52:02;;;;;;;2.30;2.07;;;24.40;91.80;;;;;;5008330;28;20467;-52
2023/07/14 04:54:29;;;;;;;1.50;1.40;;;24.50;91.90;;;;;;5013342;28;20502;-53
2023/07/14 04:56:56;;;;;;;2.30;1.80;;;24.40;91.80;;;;;;5011174;28;20462;-56
2023/07/14 04:59:23;;;;;;;1.50;1.40;;;24.50;91.90;;;;;;5011199;28;20506;-55
2023/07/14 05:01:50;;;;;;;1.90;1.80;;;24.50;91.90;;;;;;5007009;28;20495;-50
2023/07/14 05:04:18;;;;;;;1.90;1.57;;;24.50;91.90;;;;;;5010095;28;20561;-57
2023/07/14 05:06:45;;;;;;;1.70;1.50;;;24.40;91.80;;;;;;5010784;28;20467;-54
2023/07/14 05:09:11;;;;;;;1.80;1.70;;;24.50;91.90;;;;;;5012682;28;21110;-50
2023/07/14 05:11:40;;;;;;;1.70;1.60;;;24.40;91.80;;;;;;5010892;28;20894;-52
2023/07/14 05:14:06;;;;;;;1.60;1.43;;;24.40;91.90;;;;;;5014651;28;21006;-55
2023/07/14 05:16:33;;;;;;;1.80;1.70;;;24.50;91.90;;;;;;5009222;28;20467;-56
2023/07/14 05:19:00;;;;;;;1.67;1.57;;;24.50;92.00;;;;;;5011721;28;20456;-53
2023/07/14 05:21:28;;;;;;;1.60;1.50;;;24.40;91.90;;;;;;5002435;28;20459;-56
2023/07/14 05:23:55;;;;;;;1.60;1.50;;;24.40;91.90;;;;;;5015227;28;20498;-56
2023/07/14 05:26:21;;;;;;;1.80;1.40;;;24.40;91.90;;;;;;5011883;28;20474;-52
2023/07/14 05:28:48;;;;;;;1.97;1.80;;;24.40;91.90;;;;;;5010722;28;20468;-53
2023/07/14 05:31:15;;;;;;;1.50;1.30;;;24.40;91.90;;;;;;5015540;28;20470;-50
2023/07/14 05:33:42;;;;;;;1.50;1.40;;;24.40;91.90;;;;;;5015261;28;20482;-51
2023/07/14 05:36:08;;;;;;;2.07;1.67;;;24.40;91.90;;;;;;5001274;28;20821;-52
2023/07/14 05:38:37;;;;;;;1.67;1.57;;;24.40;91.90;;;;;;5003465;28;20467;-55
2023/07/14 05:41:04;;;;;;;1.60;1.50;;;24.40;91.90;;;;;;5014626;28;20957;-50
2023/07/14 05:43:31;;;;;;;1.53;1.43;;;24.40;92.00;;;;;;5015712;28;20558;-53
2023/07/14 05:45:58;;;;;;;1.60;1.50;;;24.40;91.90;;;;;;5012715;28;20538;-55
2023/07/14 05:48:25;;;;;;;1.37;1.20;;;24.40;91.90;;;;;;5010622;28;20472;-53
2023/07/14 05:50:52;;;;;;;2.40;1.57;;;24.40;91.90;;;;;;5005506;28;20459;-50
2023/07/14 05:53:19;;;;;;;1.60;1.33;;;24.40;91.90;;;;;;5006189;28;20847;-53
2023/07/14 05:55:48;;;;;;;1.60;1.50;;;24.40;91.90;;;;;;5012790;28;20467;-50
2023/07/14 05:58:15;;;;;;;1.80;1.57;;;24.30;91.80;;;;;;5006656;28;20470;-57
2023/07/14 06:00:42;;;;;;;1.50;1.40;;;24.40;91.90;;;;;;5001720;28;20591;-55
2023/07/14 06:03:13;;;;;;;1.80;1.70;;;24.40;91.90;;;;;;5007640;28;20914;-57
2023/07/14 06:05:41;;;;;;;1.50;1.40;;;24.40;91.90;;;;;;5011989;28;20965;-55
2023/07/14 06:08:07;;;;;;;1.87;1.77;;;24.30;91.90;;;;;;5009322;28;20463;-52
2023/07/14 06:10:35;;;;;;;1.30;1.20;;;24.30;91.90;;;;;;5006813;28;20547;-50
2023/07/14 06:13:04;;;;;;;1.90;1.80;;;24.30;91.90;;;;;;5010632;28;20711;-52
2023/07/14 06:15:31;;;;;;;1.60;1.50;;;24.40;92.00;;;;;;5007770;28;20489;-53
2023/07/14 06:17:58;;;;;;;1.57;1.47;;;24.40;92.00;;;;;;5006218;28;20470;-51
2023/07/14 06:20:24;;;;;;;1.47;1.37;;;24.40;92.00;;;;;;5007097;28;20477;-56
2023/07/14 06:22:51;;;;;;;1.50;1.40;;;24.30;92.00;;;;;;5008073;28;20675;-57
2023/07/14 06:25:18;;;;;;;1.67;1.57;;;24.40;92.10;;;;;;5005215;28;20468;-55
2023/07/14 06:27:45;;;;;;;1.60;1.50;;;24.40;92.10;;;;;;5005688;28;20877;-57
2023/07/14 06:30:14;;;;;;;1.73;1.50;;;24.40;92.00;;;;;;4999907;28;20456;-52
2023/07/14 06:32:41;;;;;;;1.53;1.43;;;24.40;92.00;;;;;;5007929;28;21058;-49
2023/07/14 06:35:10;;;;;;;2.03;1.63;;;24.40;92.00;;;;;;5003276;28;22342;-57
2023/07/14 06:37:36;;;;;;;2.37;1.80;;;24.40;92.00;;;;;;5006599;28;20984;-54
2023/07/14 06:40:04;;;;;;;1.63;1.53;;;24.40;92.00;;;;;;5011781;28;20540;-48
2023/07/14 06:42:32;;;;;;;1.43;1.33;;;24.40;92.00;;;;;;5014657;28;20541;-54
2023/07/14 06:44:59;;;;;;;1.40;1.30;;;24.40;92.40;;;;;;5004944;28;20518;-54
2023/07/14 06:47:27;;;;;;;1.70;1.60;;;24.50;92.00;;;;;;5006616;28;20551;-58
2023/07/14 06:49:54;;;;;;;1.30;1.20;;;24.40;92.00;;;;;;5005966;28;20931;-56
2023/07/14 06:52:20;;;;;;;1.20;1.07;;;24.40;91.90;;;;;;5007935;28;20463;-55
2023/07/14 06:54:47;;;;;;;1.70;1.60;;;24.50;92.00;;;;;;5010766;28;20483;-56
2023/07/14 06:57:14;;;;;;;1.50;1.40;;;24.40;91.90;;;;;;5010971;28;20481;-54
2023/07/14 06:59:41;;;;;;;1.40;1.30;;;24.40;91.90;;;;;;5004625;28;20460;-54
2023/07/14 07:02:11;;;;;;;1.93;1.73;;;24.40;91.90;;;;;;5006229;28;20467;-58
2023/07/14 07:04:39;;;;;;;4.50;1.73;;;24.40;91.90;;;;;;5004530;28;20567;-57
2023/07/14 07:07:05;;;;;;;1.60;1.50;;;24.50;91.90;;;;;;5006031;28;20464;-56
2023/07/14 07:09:32;;;;;;;1.90;1.70;;;24.50;91.90;;;;;;5004695;28;20809;-52
2023/07/14 07:11:59;;;;;;;4.93;1.83;;;24.50;92.20;;;;;;5007376;28;20923;-56
2023/07/14 07:14:25;;;;;;;2.60;1.90;;;24.50;91.90;;;;;;5006388;28;20487;-54
2023/07/14 07:16:52;;;;;;;1.30;1.20;;;24.40;91.80;;;;;;5007963;28;20474;-56
2023/07/14 07:19:19;;;;;;;2.73;1.50;;;24.50;91.90;;;;;;5002519;28;20971;-56
2023/07/14 07:21:47;;;;;;;2.03;1.93;;;24.50;91.90;;;;;;5010227;28;20464;-56
2023/07/14 07:24:14;;;;;;;8.03;2.27;;;24.60;92.00;;;;;;5002103;28;20463;-61
2023/07/14 07:26:41;;;;;;;4.30;2.13;;;24.50;91.70;;;;;;5005348;28;20463;-61
2023/07/14 07:29:07;;;;;;;4.73;2.73;;;24.60;91.70;;;;;;5006857;28;21433;-59
2023/07/14 07:31:35;;;;;;;4.40;2.50;;;24.50;91.60;;;;;;5015914;28;21015;-57
2023/07/14 07:34:03;;;;;;;3.10;2.60;;;24.50;91.60;;;;;;5008953;28;20479;-56
2023/07/14 07:36:30;;;;;;;8.67;2.87;;;24.40;93.40;;;;;;5011705;28;21006;-52
2023/07/14 07:38:59;;;;;;;5.07;2.73;;;24.40;93.20;;;;;;5003564;28;20468;-53
2023/07/14 07:41:27;;;;;;;4.60;3.07;;;24.40;93.00;;;;;;5013121;28;20462;-56
2023/07/14 07:43:54;;;;;;;4.70;2.17;;;24.40;93.10;;;;;;5015785;28;20458;-55
2023/07/14 07:46:22;;;;;;;2.77;2.37;;;24.50;92.90;;;;;;5007708;28;20460;-50
2023/07/14 07:48:49;;;;;;;7.27;2.37;;;24.40;92.80;;;;;;5011711;28;20476;-53
2023/07/14 07:51:15;;;;;;;4.20;2.40;;;24.30;93.10;;;;;;5017001;28;21010;-56
2023/07/14 07:53:42;;;;;;;9.17;3.20;;;24.40;92.70;;;;;;5020043;28;20482;-54
2023/07/14 07:56:11;;;;;;;4.60;2.70;;;24.40;92.70;;;;;;5016901;28;20467;-56
2023/07/14 07:58:38;;;;;;;4.50;2.30;;;24.30;92.60;;;;;;5010507;28;20505;-57
2023/07/14 08:01:06;;;;;;;3.80;2.50;;;24.30;92.60;;;;;;5010714;28;20462;-53
2023/07/14 08:03:34;;;;;;;4.63;2.20;;;24.30;92.60;;;;;;5011746;28;20458;-53
2023/07/14 08:06:02;;;;;;;7.10;2.40;;;24.30;92.60;;;;;;5007541;28;20455;-56
2023/07/14 08:08:29;;;;;;;5.73;2.80;;;24.30;92.60;;;;;;5007992;28;20467;-53
2023/07/14 08:10:56;;;;;;;5.20;2.27;;;24.40;92.70;;;;;;5008889;28;20455;-52
2023/07/14 08:13:24;;;;;;;3.50;2.10;;;24.30;92.70;;;;;;5008078;28;20856;-56
2023/07/14 08:15:52;;;;;;;6.90;2.70;;;24.40;92.80;;;;;;5009495;28;20459;-50
2023/07/14 08:18:19;;;;;;;3.80;2.03;;;24.20;92.70;;;;;;5010975;28;21275;-55
2023/07/14 08:20:45;;;;;;;2.57;2.37;;;24.30;92.80;;;;;;5008696;28;20462;-55
2023/07/14 08:23:17;;;;;;;2.63;2.43;;;24.30;92.80;;;;;;5006227;28;20466;-51
2023/07/14 08:25:43;;;;;;;2.20;2.00;;;24.30;92.80;;;;;;5004113;28;20472;-55
2023/07/14 08:28:10;;;;;;;2.57;2.10;;;24.30;92.90;;;;;;5005683;28;20959;-57
2023/07/14 08:30:38;;;;;;;2.07;1.87;;;24.30;92.90;;;;;;5001774;28;20459;-53
2023/07/14 08:33:05;;;;;;;2.63;1.90;;;24.30;92.90;;;;;;5007281;28;20454;-53
2023/07/14 08:35:32;;;;;;;3.43;2.43;;;24.40;93.00;;;;;;5007993;28;20487;-53
2023/07/14 08:37:59;;;;;;;5.57;2.23;;;24.20;92.50;;;;;;5006179;28;20541;-55
2023/07/14 08:40:32;;;;;;;2.50;2.13;;;24.20;92.30;;;;;;5003409;28;20991;-55
2023/07/14 08:43:14;;;;;;;2.77;2.03;;;24.30;92.50;;;;;;5005738;28;20463;-56
2023/07/14 08:45:51;;;;;;;4.43;2.43;;;24.30;92.50;;;;;;5003299;28;20554;-55
2023/07/14 08:48:32;;;;;;;3.30;1.90;;;24.20;92.50;;;;;;5004971;28;21050;-53
2023/07/14 08:51:05;;;;;;;3.30;2.00;;;24.30;92.50;;;;;;5006719;28;20686;-50
2023/07/14 08:53:33;;;;;;;5.33;2.33;;;24.30;92.50;;;;;;5008180;28;20483;-62
2023/07/14 08:56:03;;;;;;;2.87;2.30;;;24.20;99.00;;;;;;5003736;28;20478;-63
2023/07/14 08:58:33;;;;;;;5.50;2.53;;;24.20;98.80;;;;;;5003401;28;20470;-64
2023/07/14 09:01:08;;;;;;;3.47;2.00;;;24.20;98.70;;;;;;5008744;28;20486;-64
2023/07/14 09:03:41;;;;;;;5.30;2.80;;;24.20;98.50;;;;;;5009810;28;20463;-64
2023/07/14 09:06:21;;;;;;;4.30;2.10;;;24.20;98.30;;;;;;5007915;28;20675;-64
2023/07/14 09:08:49;;;;;;;4.27;2.60;;;24.10;98.30;;;;;;5012460;28;20462;-64
2023/07/14 09:11:44;;;;;;;3.00;1.80;;;24.20;98.10;;;;;;5010917;28;20454;-64
2023/07/14 09:14:28;;;;;;;3.10;2.20;;;24.20;98.00;;;;;;5008546;28;20483;-63
2023/07/14 09:17:02;;;;;;;4.00;2.13;;;24.20;98.00;;;;;;5011755;28;20463;-63
2023/07/14 09:19:41;;;;;;;4.83;2.10;;;24.20;98.00;;;;;;5010946;28;20469;-64
2023/07/14 09:22:15;;;;;;;2.80;1.67;;;24.10;97.50;;;;;;5006641;28;20753;-64
2023/07/14 09:24:52;;;;;;;4.57;2.13;;;24.20;98.00;;;;;;5009398;28;20466;-64
2023/07/14 09:27:23;;;;;;;4.03;2.47;;;24.10;97.90;;;;;;5006975;28;20463;-64
2023/07/14 09:29:52;;;;;;;3.50;2.17;;;24.10;97.90;;;;;;5006989;28;21020;-63
2023/07/14 09:32:32;;;;;;;3.10;1.70;;;24.10;98.00;;;;;;5003870;28;20467;-63
2023/07/14 09:35:04;;;;;;;4.53;3.07;;;24.20;98.10;;;;;;5006026;28;20495;-64
2023/07/14 09:37:34;;;;;;;6.70;2.73;;;24.10;98.00;;;;;;5004935;28;20925;-63
2023/07/14 09:40:16;;;;;;;4.27;2.20;;;24.10;98.00;;;;;;5011160;28;21094;-64
2023/07/14 09:42:43;;;;;;;6.17;2.60;;;24.10;98.10;;;;;;5011108;28;20475;-64
2023/07/14 09:45:16;;;;;;;3.20;1.90;;;24.20;98.10;;;;;;5011276;28;20840;-64
2023/07/14 09:47:47;;;;;;;2.33;2.00;;;24.10;98.00;;;;;;5004353;28;20462;-64
2023/07/14 09:50:16;;;;;;;4.33;2.10;;;24.20;98.00;;;;;;5009592;28;21062;-64
2023/07/14 09:52:56;;;;;;;2.13;1.93;;;24.20;98.00;;;;;;5008530;28;20833;-64
2023/07/14 09:55:23;;;;;;;2.33;1.60;;;24.20;98.00;;;;;;5008038;28;20601;-63
2023/07/14 09:57:55;;;;;;;3.60;1.97;;;24.10;97.80;;;;;;5003754;28;20466;-64
2023/07/14 10:00:25;;;;;;;2.60;2.07;;;24.10;97.80;;;;;;5010247;28;20532;-63
2023/07/14 10:03:09;;;;;;;3.17;2.20;;;24.10;97.80;;;;;;5010477;28;20455;-64
2023/07/14 10:05:48;;;;;;;3.17;2.00;;;24.10;97.90;;;;;;5008308;28;20506;-63
2023/07/14 10:08:26;;;;;;;2.83;2.20;;;24.20;97.90;;;;;;5014586;28;20501;-64
2023/07/14 10:10:56;;;;;;;2.17;1.97;;;24.10;97.90;;;;;;5012415;28;20463;-64
2023/07/14 10:13:26;;;;;;;3.63;1.90;;;24.20;98.00;;;;;;5015240;28;20462;-63
2023/07/14 10:15:57;;;;;;;2.93;1.90;;;24.20;97.90;;;;;;5013594;28;20482;-63
2023/07/14 10:18:27;;;;;;;3.63;2.60;;;24.20;97.80;;;;;;5013253;28;20466;-64
2023/07/14 10:21:06;;;;;;;1.97;1.73;;;24.10;97.80;;;;;;5012315;28;20792;-63
2023/07/14 10:23:33;;;;;;;3.90;2.60;;;24.10;97.80;;;;;;5016621;28;20458;-64
2023/07/14 10:26:02;;;;;;;2.10;2.00;;;24.10;97.60;;;;;;5015147;28;20979;-63
2023/07/14 10:28:30;;;;;;;3.50;1.93;;;24.10;97.50;;;;;;5007032;28;20459;-63
2023/07/14 10:31:06;;;;;;;4.90;2.00;;;24.00;97.30;;;;;;5012581;28;20455;-64
2023/07/14 10:33:43;;;;;;;3.80;2.20;;;24.10;97.40;;;;;;5012522;28;20466;-64
2023/07/14 10:36:15;;;;;;;2.60;2.10;;;24.10;97.40;;;;;;5009696;28;20899;-63
2023/07/14 10:38:45;;;;;;;2.13;1.93;;;24.00;97.30;;;;;;5003927;28;20968;-64
2023/07/14 10:41:12;;;;;;;2.20;2.00;;;24.10;97.30;;;;;;5001663;28;20460;-63
2023/07/14 10:43:45;;;;;;;2.40;2.20;;;24.20;97.30;;;;;;5003195;28;20467;-64
2023/07/14 10:46:16;;;;;;;3.10;2.40;;;24.10;97.20;;;;;;5002220;28;20471;-64
2023/07/14 10:48:48;;;;;;;4.23;2.70;;;24.10;97.20;;;;;;5006834;28;20455;-64
2023/07/14 10:51:28;;;;;;;3.30;2.30;;;24.10;97.20;;;;;;5004429;28;20897;-64
2023/07/14 10:53:59;;;;;;;3.70;2.40;;;24.10;97.20;;;;;;5012097;28;20486;-61
2023/07/14 10:56:30;;;;;;;2.20;2.00;;;24.00;97.20;;;;;;5006680;28;20456;-61
2023/07/14 10:59:03;;;;;;;2.57;2.30;;;24.10;97.20;;;;;;5006630;28;20456;-60
2023/07/14 11:01:37;;;;;;;3.37;2.10;;;24.10;97.20;;;;;;5007392;28;20455;-59
2023/07/14 11:04:16;;;;;;;3.30;2.50;;;24.10;97.30;;;;;;5002487;28;21008;-60
2023/07/14 11:06:46;;;;;;;3.33;2.67;;;24.10;97.30;;;;;;5003034;28;20483;-59
2023/07/14 11:09:14;;;;;;;3.57;2.30;;;24.20;97.50;;;;;;5001534;28;20809;-60
2023/07/14 11:11:48;;;;;;;2.73;2.10;;;24.10;97.50;;;;;;5004430;28;20462;-58
2023/07/14 11:14:28;;;;;;;3.80;2.13;;;24.10;97.60;;;;;;5003388;28;20490;-60
2023/07/14 11:17:07;;;;;;;3.00;2.33;;;24.00;97.60;;;;;;5002246;28;20998;-60
2023/07/14 11:19:48;;;;;;;2.90;2.60;;;24.10;97.70;;;;;;5005076;28;20867;-59
2023/07/14 11:22:25;;;;;;;2.10;1.90;;;24.20;97.90;;;;;;4997307;28;20990;-59
2023/07/14 11:25:06;;;;;;;2.40;1.90;;;24.10;97.70;;;;;;5003168;28;20565;-60
2023/07/14 11:27:36;;;;;;;3.07;1.90;;;24.10;97.80;;;;;;5006557;28;20495;-59
2023/07/14 11:30:10;;;;;;;2.30;2.10;;;24.20;97.90;;;;;;5000628;28;20964;-60
2023/07/14 11:32:41;;;;;;;2.90;2.10;;;24.10;97.90;;;;;;5003974;28;20467;-60
2023/07/14 11:35:29;;;;;;;2.53;2.33;;;24.10;97.90;;;;;;4997951;28;20506;-60
2023/07/14 11:38:17;;;;;;;10.13;2.50;;;24.10;97.70;;;;;;5006958;28;20460;-60
2023/07/14 11:40:46;;;;;;;3.10;1.90;;;24.10;97.40;;;;;;5001316;28;20483;-59
2023/07/14 11:43:21;;;;;;;3.40;2.63;;;24.10;97.00;;;;;;5005394;28;20965;-61
2023/07/14 11:45:55;;;;;;;3.00;2.30;;;24.10;96.90;;;;;;5004179;28;20463;-61
2023/07/14 11:48:25;;;;;;;2.37;2.17;;;24.10;96.60;;;;;;5005060;28;20471;-59
2023/07/14 11:51:12;;;;;;;6.30;2.37;;;24.10;96.50;;;;;;5005124;28;20463;-59
2023/07/14 11:53:42;;;;;;;8.00;2.87;;;24.10;96.60;;;;;;5005478;28;20793;-59
2023/07/14 11:56:23;;;;;;;3.03;2.60;;;24.10;96.50;;;;;;5008077;28;20494;-61
2023/07/14 11:59:04;;;;;;;3.60;2.43;;;24.20;96.60;;;;;;4997152;28;20560;-61
2023/07/14 12:01:31;;;;;;;2.97;2.43;;;24.10;96.20;;;;;;4995221;28;20966;-59
2023/07/14 12:04:21;;;;;;;4.70;2.57;;;24.10;96.10;;;;;;5004108;28;20474;-61
2023/07/14 12:06:50;;;;;;;2.27;1.80;;;24.00;96.50;;;;;;5002123;28;20463;-61
2023/07/14 12:09:18;;;;;;;4.57;3.10;;;24.10;96.50;;;;;;5001960;28;20467;-60
2023/07/14 12:11:57;;;;;;;2.47;2.27;;;24.10;96.70;;;;;;5002748;28;21065;-61
2023/07/14 12:14:48;;;;;;;5.90;3.00;;;24.10;96.60;;;;;;5003534;28;20514;-60
2023/07/14 12:17:44;;;;;;;4.47;2.97;;;24.20;96.90;;;;;;5009395;28;21022;-59
2023/07/14 12:20:36;;;;;;;4.00;2.47;;;24.10;96.80;;;;;;5003083;28;20597;-60
2023/07/14 12:23:26;;;;;;;3.00;2.73;;;24.10;96.80;;;;;;5006106;28;20459;-61
2023/07/14 12:26:00;;;;;;;3.63;2.30;;;24.20;97.00;;;;;;5004090;28;20860;-61
2023/07/14 12:28:33;;;;;;;2.80;2.37;;;24.20;97.00;;;;;;5004224;28;20493;-61
2023/07/14 12:31:03;;;;;;;2.47;1.83;;;24.10;97.10;;;;;;5007540;28;20479;-60
2023/07/14 12:33:30;;;;;;;3.03;2.00;;;24.20;97.20;;;;;;5010890;28;20498;-60
2023/07/14 12:36:01;;;;;;;3.20;2.70;;;24.20;97.10;;;;;;5004585;28;20529;-61
2023/07/14 12:38:30;;;;;;;3.07;2.43;;;24.20;97.10;;;;;;5011675;28;20459;-59
2023/07/14 12:40:58;;;;;;;3.57;2.70;;;24.10;97.30;;;;;;5010264;28;20467;-59
2023/07/14 12:43:30;;;;;;;4.60;2.00;;;24.20;97.40;;;;;;5010436;28;20463;-59
2023/07/14 12:45:58;;;;;;;2.83;1.80;;;24.30;97.50;;;;;;5005800;28;20475;-59
2023/07/14 12:48:27;;;;;;;4.97;2.30;;;24.20;97.30;;;;;;5007996;28;20880;-61
2023/07/14 12:50:55;;;;;;;5.70;2.90;;;24.30;97.30;;;;;;5002509;28;21174;-61
2023/07/14 12:53:22;;;;;;;4.53;2.40;;;24.20;97.80;;;;;;5005428;28;20474;-60
2023/07/14 12:55:50;;;;;;;2.97;2.63;;;24.20;97.50;;;;;;5012318;28;20482;-60
2023/07/14 12:58:21;;;;;;;3.60;2.63;;;24.20;97.50;;;;;;5007762;28;20578;-59
2023/07/14 13:00:54;;;;;;;4.13;3.03;;;24.20;97.50;;;;;;5004750;28;20471;-60
2023/07/14 13:03:21;;;;;;;3.83;2.40;;;24.10;97.30;;;;;;5005598;28;20970;-60